Time;durP1;ratioP1;P1;durP2;ratioP2;P2;SDS_P1;SDS_P2;PMS_P1;PMS_P2;Temp;Humidity;BMP_temperature;BMP_pressure;BME280_temperature;BME280_humidity;BME280_pressure;Samples;Min_cycle;Max_cycle;Signal;HPM_P1;HPM_P2
2024/04/13 00:01:38;;;;;;;3.65;3.05;;;13.50;99.90;;;-141.84;76.91;33052.69;5428788;26;20585;-72
2024/04/13 00:04:09;;;;;;;3.50;2.85;;;13.50;99.90;;;-141.84;77.67;39716.53;5430136;26;20747;-71
2024/04/13 00:06:40;;;;;;;4.30;3.90;;;13.50;99.90;;;-141.84;79.12;49943.41;5418560;26;20223;-71
2024/04/13 00:09:16;;;;;;;3.90;3.17;;;13.40;99.90;;;-141.84;79.88;55977.41;5406785;26;20242;-72
2024/04/13 00:11:43;;;;;;;2.93;2.70;;;13.40;99.90;;;-141.84;79.24;49943.41;5434859;26;20253;-73
2024/04/13 00:14:13;;;;;;;2.88;2.60;;;13.40;99.90;;;-141.84;80.38;57553.00;5432259;26;20254;-73
2024/04/13 00:16:41;;;;;;;3.65;3.30;;;13.30;99.90;;;-141.84;80.87;61231.81;5428364;26;20265;-72
2024/04/13 00:19:11;;;;;;;3.08;2.80;;;13.30;99.90;;;-141.84;81.57;64914.06;5432320;26;20309;-73
2024/04/13 00:21:43;;;;;;;3.70;2.73;;;13.20;99.90;;;-141.84;81.20;63072.50;5433372;26;20309;-70
2024/04/13 00:24:14;;;;;;;3.13;2.67;;;13.20;99.90;;;-141.84;80.73;61231.81;5428549;26;20835;-73
2024/04/13 00:26:42;;;;;;;3.08;2.80;;;13.20;99.90;;;-141.84;79.94;56239.94;5433756;26;20741;-73
2024/04/13 00:29:13;;;;;;;3.77;3.10;;;13.20;99.90;;;-141.84;79.63;53352.78;5414673;26;20799;-73
2024/04/13 00:31:41;;;;;;;3.30;3.00;;;13.20;99.90;;;-141.84;80.41;58866.47;5428858;26;20262;-73
2024/04/13 00:34:11;;;;;;;3.40;3.10;;;13.20;99.90;;;-141.84;77.99;43656.88;5428380;26;20266;-73
2024/04/13 00:36:41;;;;;;;3.70;3.50;;;13.30;99.90;;;-141.84;78.14;40476.50;5441462;26;20227;-72
2024/04/13 00:39:12;;;;;;;3.63;3.33;;;13.30;99.90;;;-141.84;80.28;55714.84;5430384;26;20243;-72
2024/04/13 00:41:40;;;;;;;4.40;3.83;;;13.30;99.90;;;-141.84;81.05;62283.53;5431049;26;20285;-72
2024/04/13 00:44:10;;;;;;;4.55;3.40;;;13.20;99.90;;;-141.84;80.86;61231.81;5432992;26;20286;-72
2024/04/13 00:46:42;;;;;;;4.17;3.80;;;13.20;99.90;;;-141.84;80.67;58603.75;5436082;26;20251;-72
2024/04/13 00:49:13;;;;;;;4.45;3.80;;;13.20;99.90;;;-141.84;80.64;59917.56;5429685;26;20254;-72
2024/04/13 00:51:49;;;;;;;4.10;3.70;;;13.20;99.90;;;-141.84;80.97;62283.53;5399690;26;20227;-71
2024/04/13 00:54:24;;;;;;;4.28;3.90;;;13.20;99.90;;;-141.84;81.89;65703.56;5444912;26;20226;-72
2024/04/13 00:56:53;;;;;;;3.60;3.30;;;13.10;99.90;;;-141.84;82.33;69389.94;5432290;26;20252;-73
2024/04/13 00:59:25;;;;;;;5.65;5.15;;;13.10;99.90;;;-141.84;82.84;71234.38;5440232;26;20288;-72
2024/04/13 01:01:58;;;;;;;3.97;3.57;;;13.00;99.90;;;-141.84;83.15;73079.69;5433265;26;20714;-71
2024/04/13 01:04:28;;;;;;;4.25;3.63;;;13.00;99.90;;;-141.84;83.22;73343.38;5433885;26;20300;-72
2024/04/13 01:06:58;;;;;;;4.20;3.90;;;13.00;99.90;;;-141.84;83.84;76245.09;5429628;26;20219;-72
2024/04/13 01:09:28;;;;;;;3.90;3.57;;;13.00;99.90;;;-141.84;81.42;63598.59;5428205;26;20747;-71
2024/04/13 01:11:56;;;;;;;5.37;4.83;;;13.10;99.90;;;-141.84;81.79;66229.97;5430452;26;20255;-72
2024/04/13 01:14:26;;;;;;;6.47;5.97;;;13.10;99.90;;;-141.84;83.63;74134.56;5418745;26;20737;-72
2024/04/13 01:16:55;;;;;;;5.77;5.27;;;13.00;99.90;;;-141.84;84.83;79412.97;5427925;26;20624;-72
2024/04/13 01:19:25;;;;;;;5.10;4.60;;;13.00;99.90;;;-141.84;85.34;82054.78;5443082;26;20352;-73
2024/04/13 01:21:53;;;;;;;3.50;3.20;;;12.90;99.90;;;-141.84;86.22;84962.78;5418023;26;20264;-72
2024/04/13 01:24:26;;;;;;;5.90;5.30;;;12.80;99.90;;;-141.84;86.87;87608.25;5417829;26;20266;-72
2024/04/13 01:26:55;;;;;;;6.50;5.90;;;12.80;99.90;;;-141.84;87.84;89990.66;5413142;26;20263;-72
2024/04/13 01:29:26;;;;;;;5.67;5.20;;;12.80;99.90;;;-141.84;87.50;89725.88;5412727;26;20352;-72
2024/04/13 01:31:54;;;;;;;5.07;4.60;;;12.80;99.90;;;-141.84;87.82;90255.47;5414738;26;20259;-72
2024/04/13 01:34:25;;;;;;;5.00;4.50;;;12.70;99.90;;;-141.84;88.91;93434.41;5407486;26;20251;-72
2024/04/13 01:36:54;;;;;;;7.10;6.40;;;12.70;99.90;;;-141.84;89.48;95024.81;5428587;26;20580;-71
2024/04/13 01:39:27;;;;;;;6.17;5.63;;;12.70;99.90;;;-141.84;90.25;96881.06;5414462;26;20270;-72
2024/04/13 01:41:55;;;;;;;6.43;5.93;;;12.60;99.90;;;-141.84;90.28;97411.59;5429810;26;20337;-72
2024/04/13 01:44:27;;;;;;;6.10;5.60;;;12.60;99.90;;;-141.84;91.03;99003.56;5361859;26;20260;-72
2024/04/13 01:46:58;;;;;;;4.73;4.30;;;12.60;99.90;;;-141.84;91.40;99799.78;5435230;26;20851;-72
2024/04/13 01:49:28;;;;;;;4.95;3.88;;;12.50;99.90;;;-141.84;91.98;101392.69;5414319;26;20257;-72
2024/04/13 01:51:56;;;;;;;4.10;3.70;;;12.50;99.90;;;-141.84;92.94;103251.88;5425660;26;20238;-72
2024/04/13 01:54:29;;;;;;;4.33;3.97;;;12.40;99.90;;;-141.84;93.47;104580.41;5414012;26;20266;-72
2024/04/13 01:56:57;;;;;;;3.80;3.50;;;12.40;99.90;;;-141.84;93.27;104314.66;5441588;26;20279;-72
2024/04/13 01:59:27;;;;;;;6.10;3.80;;;12.40;99.90;;;-141.84;93.99;105377.72;5429967;26;20254;-71
2024/04/13 02:02:00;;;;;;;4.90;4.40;;;12.40;99.90;;;-141.84;94.40;106175.19;5418791;26;20297;-71
2024/04/13 02:04:28;;;;;;;7.00;4.80;;;12.40;99.90;;;-141.84;94.49;106706.94;5428034;26;20353;-71
2024/04/13 02:06:58;;;;;;;8.37;5.63;;;12.30;99.90;;;-141.84;94.12;105643.53;5413468;26;21557;-73
2024/04/13 02:09:28;;;;;;;6.90;6.00;;;12.30;99.90;;;-141.84;94.79;106972.81;5413758;26;20277;-73
2024/04/13 02:11:59;;;;;;;9.40;6.60;;;12.30;99.90;;;-141.84;94.73;106972.81;5446574;26;20265;-73
2024/04/13 02:14:26;;;;;;;10.53;7.53;;;12.30;99.90;;;-141.84;94.89;106972.81;5432756;26;20332;-72
2024/04/13 02:16:57;;;;;;;8.93;6.73;;;12.30;99.90;;;-141.84;95.54;108302.56;5432129;26;20254;-72
2024/04/13 02:19:24;;;;;;;11.80;7.53;;;12.20;99.90;;;-141.84;95.96;109100.59;5434664;26;20793;-72
2024/04/13 02:21:55;;;;;;;11.27;7.77;;;12.20;99.90;;;-141.84;96.10;109100.59;5428828;26;20717;-73
2024/04/13 02:24:24;;;;;;;10.77;7.73;;;12.20;99.90;;;-141.84;96.02;108834.56;5434295;26;20233;-72
2024/04/13 02:26:58;;;;;;;6.97;6.27;;;12.20;99.90;;;-141.84;95.56;108036.56;5451446;26;20339;-73
2024/04/13 02:29:25;;;;;;;7.33;6.10;;;12.20;99.90;;;-141.84;96.03;109100.59;5451059;26;20849;-73
2024/04/13 02:31:57;;;;;;;8.43;7.23;;;12.20;99.90;;;-141.84;96.02;108834.56;5448565;26;20261;-73
2024/04/13 02:34:25;;;;;;;9.00;6.93;;;12.20;99.90;;;-141.84;95.30;108036.56;5452784;26;20253;-73
2024/04/13 02:36:58;;;;;;;7.37;6.60;;;12.30;99.90;;;-141.84;94.72;106972.81;5452418;26;20338;-72
2024/04/13 02:39:26;;;;;;;7.77;7.07;;;12.20;99.90;;;-141.84;95.83;108302.56;5449550;26;20260;-72
2024/04/13 02:41:59;;;;;;;6.87;6.27;;;12.20;99.90;;;-141.84;96.38;109632.72;5451259;26;20300;-72
2024/04/13 02:44:27;;;;;;;6.67;6.17;;;12.20;99.90;;;-141.84;97.28;110963.31;5451078;26;20304;-72
2024/04/13 02:46:57;;;;;;;7.83;7.13;;;12.20;99.90;;;-141.84;97.78;111761.88;5445102;26;20296;-72
2024/04/13 02:49:25;;;;;;;10.10;9.20;;;12.20;99.90;;;-141.84;98.17;112294.34;5450470;26;20308;-72
2024/04/13 02:51:56;;;;;;;10.50;9.60;;;12.10;99.90;;;-141.84;98.75;113093.19;5449580;26;20272;-72
2024/04/13 02:54:24;;;;;;;8.73;7.93;;;12.10;99.90;;;-141.84;98.71;113093.19;5451594;26;20280;-72
2024/04/13 02:56:54;;;;;;;8.77;7.97;;;12.10;99.90;;;-141.84;98.33;112826.88;5461231;26;20264;-72
2024/04/13 02:59:24;;;;;;;6.82;6.13;;;12.10;99.90;;;-141.84;98.38;112560.63;5448861;26;20325;-72
2024/04/13 03:01:56;;;;;;;5.97;5.43;;;12.10;99.90;;;-141.84;98.37;112560.63;5449261;26;20265;-73
2024/04/13 03:04:23;;;;;;;4.53;4.13;;;12.10;99.90;;;-141.84;97.97;112294.34;5452009;26;20253;-73
2024/04/13 03:06:53;;;;;;;4.47;4.07;;;12.00;99.90;;;-141.84;97.73;111495.69;5450832;26;20226;-73
2024/04/13 03:09:21;;;;;;;4.37;3.87;;;12.10;99.90;;;-141.84;98.22;112560.63;5451227;26;20233;-73
2024/04/13 03:11:51;;;;;;;4.07;3.50;;;12.10;99.90;;;-141.84;98.86;113359.50;5451582;26;20646;-72
2024/04/13 03:14:19;;;;;;;4.78;3.80;;;12.00;99.90;;;-141.84;99.41;114158.53;5450810;26;20254;-73
2024/04/13 03:16:52;;;;;;;3.77;3.43;;;12.00;99.90;;;-141.84;100.00;114957.72;5450330;26;20358;-73
2024/04/13 03:19:20;;;;;;;4.00;3.70;;;12.00;99.90;;;-141.84;100.00;115490.59;5418826;26;20682;-73
2024/04/13 03:21:50;;;;;;;3.90;3.60;;;12.00;99.90;;;-141.84;100.00;115757.06;5445419;26;20229;-73
2024/04/13 03:24:18;;;;;;;3.97;3.37;;;12.00;99.90;;;-141.84;100.00;116290.06;5477247;26;20273;-72
2024/04/13 03:26:48;;;;;;;4.07;3.50;;;11.90;99.90;;;-141.84;100.00;116823.13;5457793;26;20296;-72
2024/04/13 03:29:16;;;;;;;4.00;3.60;;;11.90;99.90;;;-141.84;100.00;116023.56;5455319;26;20437;-71
2024/04/13 03:31:47;;;;;;;4.30;4.00;;;11.90;99.90;;;-141.84;100.00;116290.06;5452717;26;20269;-72
2024/04/13 03:34:17;;;;;;;5.40;4.87;;;11.90;99.90;;;-141.84;100.00;116290.06;5452623;26;20741;-73
2024/04/13 03:36:47;;;;;;;5.33;4.83;;;11.90;99.90;;;-141.84;100.00;117089.69;5452139;26;20272;-72
2024/04/13 03:39:21;;;;;;;5.33;4.83;;;11.90;99.90;;;-141.84;100.00;117622.84;5452994;26;20230;-72
2024/04/13 03:41:51;;;;;;;5.77;5.17;;;11.90;99.90;;;-141.84;100.00;117889.44;5458348;26;20253;-73
2024/04/13 03:44:22;;;;;;;5.47;5.07;;;11.90;99.90;;;-141.84;100.00;117889.44;5452550;26;20254;-72
2024/04/13 03:46:49;;;;;;;5.30;4.80;;;11.90;99.90;;;-141.84;100.00;117356.25;5451743;26;20258;-72
2024/04/13 03:49:22;;;;;;;6.00;5.40;;;11.90;99.90;;;-141.84;100.00;117089.69;5451669;26;20331;-72
2024/04/13 03:51:51;;;;;;;5.90;5.40;;;11.90;99.90;;;-141.84;100.00;116556.59;5453362;26;20237;-72
2024/04/13 03:54:23;;;;;;;6.83;5.20;;;11.90;99.90;;;-141.84;100.00;116556.59;5455348;26;20238;-73
2024/04/13 03:56:51;;;;;;;6.30;5.80;;;11.90;99.90;;;-141.84;100.00;116556.59;5454864;26;20250;-73
2024/04/13 03:59:21;;;;;;;5.90;5.40;;;11.90;99.90;;;-141.84;100.00;116290.06;5452837;26;20284;-72
2024/04/13 04:01:48;;;;;;;7.50;6.80;;;11.90;99.90;;;-141.84;100.00;116556.59;5453931;26;20281;-72
2024/04/13 04:04:21;;;;;;;8.40;7.60;;;11.90;99.90;;;-141.84;100.00;116290.06;5454585;26;20821;-72
2024/04/13 04:06:49;;;;;;;6.47;5.20;;;11.90;99.90;;;-141.84;100.00;115224.16;5455472;26;20247;-72
2024/04/13 04:09:19;;;;;;;7.07;6.47;;;12.00;99.90;;;-141.84;99.50;114158.53;5455798;26;20230;-72
2024/04/13 04:11:46;;;;;;;6.00;5.40;;;12.00;99.90;;;-141.84;99.03;113625.81;5456442;26;20258;-72
2024/04/13 04:14:17;;;;;;;7.33;6.73;;;12.00;99.90;;;-141.84;97.83;111761.88;5456644;26;20259;-59
2024/04/13 04:16:45;;;;;;;7.20;6.57;;;12.00;99.90;;;-141.84;98.52;112560.63;5454441;26;20254;-59
2024/04/13 04:19:16;;;;;;;7.50;6.60;;;12.00;99.90;;;-141.84;98.62;112826.88;5450483;26;20257;-59
2024/04/13 04:21:46;;;;;;;6.77;6.23;;;12.10;99.90;;;-141.84;98.94;113359.50;5423888;26;20623;-59
2024/04/13 04:24:19;;;;;;;7.17;6.43;;;12.10;99.90;;;-141.84;98.34;112560.63;5444312;26;20231;-59
2024/04/13 04:26:47;;;;;;;7.27;6.50;;;12.10;99.90;;;-141.84;97.87;112028.13;5429439;26;20672;-59
2024/04/13 04:29:20;;;;;;;7.83;7.00;;;12.10;99.90;;;-141.84;97.71;111495.69;5430335;26;20293;-59
2024/04/13 04:31:47;;;;;;;9.57;8.73;;;12.00;99.90;;;-141.84;98.59;112826.88;5428615;26;20308;-59
2024/04/13 04:34:19;;;;;;;9.30;8.40;;;12.00;99.90;;;-141.84;99.63;114158.53;5434064;26;20250;-59
2024/04/13 04:36:51;;;;;;;6.83;6.23;;;12.00;99.90;;;-141.84;99.93;114424.91;5437208;26;20226;-59
2024/04/13 04:39:22;;;;;;;11.40;10.30;;;12.00;99.90;;;-141.84;100.00;114957.72;5435062;26;20391;-58
2024/04/13 04:41:49;;;;;;;7.17;6.47;;;12.00;99.90;;;-141.84;100.00;115490.59;5431262;26;20243;-59
2024/04/13 04:44:20;;;;;;;5.80;5.30;;;12.00;99.90;;;-141.84;100.00;115224.16;5428828;26;20258;-59
2024/04/13 04:46:47;;;;;;;5.63;5.13;;;12.00;99.90;;;-141.84;100.00;115224.16;5436875;26;20250;-59
2024/04/13 04:49:17;;;;;;;5.53;5.03;;;12.00;99.90;;;-141.84;100.00;115490.59;5448035;26;20258;-59
2024/04/13 04:51:48;;;;;;;6.57;5.37;;;12.10;99.90;;;-141.84;100.00;115757.06;5421780;26;20234;-59
2024/04/13 04:54:19;;;;;;;7.17;6.57;;;12.10;99.90;;;-141.84;99.25;114158.53;5420100;26;20562;-59
2024/04/13 04:56:47;;;;;;;7.82;7.05;;;12.10;99.90;;;-141.84;99.09;113625.81;5429172;26;20948;-60
2024/04/13 04:59:18;;;;;;;6.80;5.80;;;12.20;99.90;;;-141.84;98.49;112826.88;5436344;26;20284;-59
2024/04/13 05:01:45;;;;;;;4.97;4.30;;;12.30;99.90;;;-141.84;97.13;110963.31;5428571;26;20254;-60
2024/04/13 05:04:17;;;;;;;4.90;4.10;;;12.30;99.90;;;-141.84;96.28;109366.66;5428389;26;20262;-59
2024/04/13 05:06:44;;;;;;;5.77;4.27;;;12.40;99.90;;;-141.84;96.01;109100.59;5421424;26;20235;-60
2024/04/13 05:09:21;;;;;;;6.57;5.53;;;12.40;99.90;;;-141.84;94.82;107238.72;5432538;26;20698;-60
2024/04/13 05:11:49;;;;;;;5.40;4.68;;;12.50;99.90;;;-141.84;89.51;94494.59;5418385;26;20321;-60
2024/04/13 05:14:21;;;;;;;5.07;4.60;;;12.70;99.90;;;-141.84;87.01;87872.91;5433050;26;20607;-59
2024/04/13 05:16:48;;;;;;;5.23;3.90;;;12.80;99.90;;;-141.84;81.68;65440.38;5427843;26;20358;-59
2024/04/13 05:19:18;;;;;;;3.83;3.35;;;13.00;99.90;;;-141.84;81.27;59129.22;5427272;26;20294;-60
2024/04/13 05:21:46;;;;;;;6.10;3.80;;;13.20;99.90;;;-141.84;80.97;59654.75;5433442;26;20293;-59
2024/04/13 05:24:19;;;;;;;3.42;3.13;;;13.30;99.90;;;-141.84;79.52;48632.88;5435327;26;20279;-60
2024/04/13 05:26:48;;;;;;;3.55;3.25;;;13.50;99.90;;;-141.84;78.14;36580.16;5441936;26;20361;-60
2024/04/13 05:29:18;;;;;;;3.95;2.90;;;13.70;99.90;;;-141.84;75.19;23520.59;5449129;26;20273;-59
2024/04/13 05:31:49;;;;;;;3.22;2.92;;;13.80;99.90;;;-141.84;75.72;25386.47;5438263;26;20295;-59
2024/04/13 05:34:19;;;;;;;3.28;2.97;;;14.00;99.90;;;-141.84;72.90;20793.56;5447248;26;20312;-59
2024/04/13 05:36:47;;;;;;;3.92;3.53;;;14.10;99.90;;;-141.84;72.26;20452.06;5448380;26;20334;-60
2024/04/13 05:39:22;;;;;;;3.72;3.35;;;14.30;99.90;;;-141.84;71.78;20204.06;5449594;26;20265;-60
2024/04/13 05:41:50;;;;;;;3.70;3.33;;;14.40;99.90;;;-141.84;72.41;20576.03;5448409;26;20265;-60
2024/04/13 05:44:20;;;;;;;3.47;3.17;;;14.40;99.90;;;-141.84;71.68;20269.13;5449179;26;20292;-60
2024/04/13 05:46:47;;;;;;;4.07;3.20;;;14.50;99.90;;;-141.84;70.05;19901.22;5434453;26;20254;-59
2024/04/13 05:49:18;;;;;;;3.40;3.10;;;14.60;99.90;;;-141.84;70.71;20029.28;5448325;26;20301;-60
2024/04/13 05:51:46;;;;;;;4.95;3.35;;;14.70;99.90;;;-141.84;69.69;19921.56;5451879;26;20297;-60
2024/04/13 05:54:21;;;;;;;3.40;3.10;;;14.70;99.90;;;-141.84;69.03;19836.19;5449402;26;20222;-60
2024/04/13 05:56:48;;;;;;;3.28;2.90;;;14.80;99.90;;;-141.84;69.76;19903.25;5445535;26;20291;-60
2024/04/13 05:59:19;;;;;;;3.25;2.92;;;14.80;99.90;;;-141.84;70.57;20114.63;5447608;26;20249;-60
2024/04/13 06:01:46;;;;;;;4.03;3.47;;;15.00;99.90;;;-141.84;70.13;20041.47;5447329;26;20250;-60
2024/04/13 06:04:17;;;;;;;4.38;3.38;;;15.10;99.90;;;-141.84;66.97;19783.34;5447653;26;20288;-60
2024/04/13 06:06:45;;;;;;;5.43;3.10;;;15.30;99.90;;;-141.84;65.25;19734.56;5447374;26;20249;-59
2024/04/13 06:09:16;;;;;;;4.18;3.60;;;15.60;99.90;;;-141.84;65.59;19754.91;5449832;26;20745;-59
2024/04/13 06:11:47;;;;;;;4.72;3.30;;;15.60;99.90;;;-141.84;64.96;19763.03;5447731;26;20816;-59
2024/04/13 06:14:18;;;;;;;4.00;3.50;;;15.70;99.90;;;-141.84;65.39;19787.41;5448151;26;20593;-60
2024/04/13 06:16:46;;;;;;;4.03;3.63;;;15.70;99.90;;;-141.84;64.25;19761.00;5448462;26;20253;-59
2024/04/13 06:19:18;;;;;;;4.28;3.25;;;15.80;99.90;;;-141.84;64.93;19771.16;5445674;26;20253;-60
2024/04/13 06:21:46;;;;;;;4.35;3.67;;;15.90;99.90;;;-141.84;65.34;19758.97;5447046;26;20238;-59
2024/04/13 06:24:19;;;;;;;3.97;3.50;;;15.80;99.90;;;-141.84;65.74;19793.50;5434144;26;20265;-59
2024/04/13 06:26:49;;;;;;;3.95;3.25;;;15.80;99.90;;;-141.84;66.21;19797.59;5427191;26;20259;-59
2024/04/13 06:29:19;;;;;;;3.80;3.20;;;15.80;99.90;;;-141.84;66.15;19826.03;5412280;26;20718;-60
2024/04/13 06:31:47;;;;;;;6.00;3.78;;;15.70;99.90;;;-141.84;64.86;19797.59;5421054;26;20292;-59
2024/04/13 06:34:19;;;;;;;4.68;3.85;;;15.90;99.90;;;-141.84;64.47;19838.22;5422658;26;20399;-59
2024/04/13 06:36:46;;;;;;;4.05;3.42;;;16.00;99.90;;;-141.84;63.24;19821.97;5410627;26;20285;-60
2024/04/13 06:39:17;;;;;;;4.95;3.75;;;16.20;99.90;;;-141.84;61.85;19807.75;5411963;26;20231;-59
2024/04/13 06:41:44;;;;;;;4.55;3.60;;;16.40;99.90;;;-141.84;61.62;19848.38;5435314;26;20350;-59
2024/04/13 06:44:17;;;;;;;4.20;3.65;;;16.50;99.90;;;-141.84;61.66;19848.38;5431644;26;20292;-59
2024/04/13 06:46:45;;;;;;;3.88;3.53;;;16.50;99.90;;;-141.84;60.25;19858.56;5391997;26;20373;-58
2024/04/13 06:49:17;;;;;;;3.75;3.30;;;16.70;99.90;;;-141.84;61.12;19850.41;5427880;26;20713;-60
2024/04/13 06:51:44;;;;;;;4.28;3.88;;;16.70;99.90;;;-141.84;61.00;19842.28;5428966;26;20230;-60
2024/04/13 06:54:15;;;;;;;5.03;3.83;;;16.80;99.90;;;-141.84;60.53;19840.25;5435497;26;20287;-59
2024/04/13 06:56:43;;;;;;;4.88;4.28;;;16.80;99.90;;;-141.84;60.09;19870.75;5421620;26;20266;-59
2024/04/13 06:59:13;;;;;;;4.00;3.60;;;16.90;99.90;;;-141.84;59.89;19860.59;5433658;26;20251;-59
2024/04/13 07:01:43;;;;;;;3.90;3.50;;;16.90;99.90;;;-141.84;60.18;19868.72;5427120;26;20277;-60
2024/04/13 07:04:14;;;;;;;5.13;4.00;;;17.00;99.90;;;-141.84;59.74;19874.81;5406809;26;20559;-59
2024/04/13 07:06:42;;;;;;;4.45;3.67;;;17.00;99.90;;;-141.84;59.76;19876.84;5413406;26;20235;-61
2024/04/13 07:09:12;;;;;;;4.85;3.67;;;17.00;99.90;;;-141.84;60.79;19872.78;5423738;26;20572;-60
2024/04/13 07:11:40;;;;;;;4.47;4.07;;;16.90;99.90;;;-141.84;60.78;19850.41;5415739;26;20251;-59
2024/04/13 07:14:10;;;;;;;4.45;3.80;;;16.90;99.90;;;-141.84;60.70;19878.88;5422887;26;20734;-59
2024/04/13 07:16:38;;;;;;;4.22;3.63;;;16.90;99.90;;;-141.84;61.54;19876.84;5413838;26;20289;-59
2024/04/13 07:19:10;;;;;;;4.10;3.72;;;16.90;99.90;;;-141.84;61.67;19872.78;5420892;26;20288;-60
2024/04/13 07:21:38;;;;;;;5.40;4.25;;;16.80;99.90;;;-141.84;60.81;19838.22;5436212;26;20239;-59
2024/04/13 07:24:08;;;;;;;7.80;4.07;;;16.90;99.90;;;-141.84;61.14;19872.78;5422338;26;20242;-61
2024/04/13 07:26:36;;;;;;;8.82;4.35;;;17.00;99.90;;;-141.84;60.91;19864.66;5415302;26;20333;-58
2024/04/13 07:29:06;;;;;;;5.25;4.30;;;17.00;99.90;;;-141.84;59.74;19874.81;5417767;26;20255;-58
2024/04/13 07:31:36;;;;;;;5.10;3.90;;;17.10;99.90;;;-141.84;60.79;19891.06;5416861;26;20243;-60
2024/04/13 07:34:06;;;;;;;5.05;3.90;;;17.10;99.90;;;-141.84;60.82;19872.78;5417895;26;20289;-60
2024/04/13 07:36:36;;;;;;;5.43;4.63;;;17.20;99.90;;;-141.84;60.66;19887.00;5409097;26;20254;-59
2024/04/13 07:39:06;;;;;;;3.85;3.55;;;17.20;99.90;;;-141.84;60.56;19903.25;5413656;26;20251;-59
2024/04/13 07:41:33;;;;;;;4.63;3.67;;;17.20;99.90;;;-141.84;61.06;19893.09;5413991;26;20705;-59
2024/04/13 07:44:03;;;;;;;5.65;4.43;;;17.20;99.90;;;-141.84;61.72;19866.69;5413895;26;20745;-59
2024/04/13 07:46:33;;;;;;;5.72;4.40;;;17.30;99.90;;;-141.84;60.96;19891.06;5412513;26;20711;-59
2024/04/13 07:49:03;;;;;;;4.22;3.65;;;17.30;99.90;;;-141.84;60.53;19909.34;5413838;26;20258;-59
2024/04/13 07:51:30;;;;;;;5.60;3.85;;;17.40;99.90;;;-141.84;58.69;19923.59;5415636;26;20335;-59
2024/04/13 07:54:03;;;;;;;6.90;4.47;;;17.60;99.90;;;-141.84;58.35;19964.25;5414725;26;20262;-59
2024/04/13 07:56:31;;;;;;;4.90;4.40;;;17.70;99.90;;;-141.84;57.36;19976.44;5420020;26;20254;-60
2024/04/13 07:59:03;;;;;;;6.82;4.35;;;17.80;99.90;;;-141.84;56.44;19968.31;5405705;26;20309;-62
2024/04/13 08:01:30;;;;;;;5.07;3.83;;;18.00;99.90;;;-141.84;55.97;19992.69;5406111;26;20255;-60
2024/04/13 08:04:00;;;;;;;4.72;3.63;;;18.10;99.90;;;-141.84;56.66;20029.28;5417004;26;20258;-59
2024/04/13 08:06:28;;;;;;;5.05;4.20;;;18.20;99.90;;;-141.84;55.94;20025.22;5409266;26;20320;-59
2024/04/13 08:08:58;;;;;;;5.93;3.70;;;18.30;99.90;;;-141.84;55.91;20039.44;5410507;26;20258;-59
2024/04/13 08:11:28;;;;;;;4.93;4.13;;;18.40;99.90;;;-141.84;55.38;20067.88;5413710;26;20773;-60
2024/04/13 08:13:59;;;;;;;5.43;3.80;;;18.50;99.90;;;-141.84;54.86;20069.94;5414104;26;20251;-60
2024/04/13 08:16:26;;;;;;;6.03;3.08;;;18.70;99.90;;;-141.84;54.51;20108.53;5406659;26;20285;-59
2024/04/13 08:18:57;;;;;;;4.00;3.40;;;18.70;99.90;;;-141.84;54.64;20090.25;5406880;26;20235;-59
2024/04/13 08:21:25;;;;;;;4.25;3.35;;;18.80;99.90;;;-141.84;53.93;20122.78;5401985;26;20285;-60
2024/04/13 08:23:57;;;;;;;5.97;3.75;;;19.00;99.90;;;-141.84;52.60;20141.06;5399459;26;20327;-60
2024/04/13 08:26:24;;;;;;;6.43;3.58;;;19.10;99.90;;;-141.84;52.49;20183.75;5424151;26;20630;-58
2024/04/13 08:28:58;;;;;;;5.75;3.28;;;19.30;99.90;;;-141.84;51.27;20208.13;5427907;26;20293;-58
2024/04/13 08:31:25;;;;;;;7.50;3.10;;;19.50;99.90;;;-141.84;50.59;20238.63;5429683;26;20765;-60
2024/04/13 08:33:57;;;;;;;7.90;3.80;;;19.60;99.90;;;-141.84;50.13;20232.53;5432728;26;20332;-61
2024/04/13 08:36:24;;;;;;;4.93;3.00;;;19.70;99.90;;;-141.84;49.97;20228.47;5419707;26;20238;-60
2024/04/13 08:38:54;;;;;;;4.78;3.00;;;19.70;99.90;;;-141.84;50.33;20238.63;5420089;26;20263;-60
2024/04/13 08:41:35;;;;;;;4.07;2.90;;;19.70;99.90;;;-141.84;50.07;20275.22;5433992;26;20280;-63
2024/04/13 08:44:08;;;;;;;4.32;3.22;;;19.80;99.90;;;-141.84;49.48;20281.31;5433563;26;20250;-59
2024/04/13 08:46:44;;;;;;;4.05;2.92;;;19.80;99.90;;;-141.84;49.48;20260.97;5413359;26;20257;-61
2024/04/13 08:49:18;;;;;;;4.90;3.10;;;19.80;99.90;;;-141.84;49.65;20285.38;5433338;26;20296;-60
2024/04/13 08:51:47;;;;;;;4.47;3.20;;;19.90;99.90;;;-141.84;49.46;20291.47;5433187;26;20333;-60
2024/04/13 08:54:19;;;;;;;4.38;3.22;;;20.00;99.90;;;-141.84;49.48;20287.41;5429072;26;20242;-60
2024/04/13 08:56:47;;;;;;;4.60;3.25;;;20.00;99.90;;;-141.84;49.48;20297.56;5424834;26;20751;-59
2024/04/13 08:59:21;;;;;;;5.68;3.40;;;20.00;99.90;;;-141.84;48.63;20326.03;5426938;26;20301;-59
2024/04/13 09:01:50;;;;;;;7.93;3.50;;;20.10;99.90;;;-141.84;48.41;20319.94;5429766;26;20274;-61
2024/04/13 09:04:20;;;;;;;3.70;2.75;;;20.10;99.90;;;-141.84;48.59;20338.22;5429848;26;20262;-63
2024/04/13 09:06:49;;;;;;;4.57;2.97;;;20.10;99.90;;;-141.84;49.41;20338.22;5419685;26;20623;-59
2024/04/13 09:09:19;;;;;;;5.07;3.15;;;20.20;99.90;;;-141.84;48.14;20350.41;5413400;26;20297;-60
2024/04/13 09:11:47;;;;;;;6.63;3.00;;;20.20;99.90;;;-141.84;48.55;20328.06;5418159;26;20359;-61
2024/04/13 09:14:20;;;;;;;5.03;3.03;;;20.20;99.90;;;-141.84;48.98;20346.34;5436250;26;20366;-59
2024/04/13 09:16:47;;;;;;;4.50;3.25;;;20.20;99.90;;;-141.84;48.63;20358.56;5427613;26;20293;-59
2024/04/13 09:19:17;;;;;;;4.03;3.47;;;20.20;99.90;;;-141.84;48.00;20350.41;5426654;26;20255;-59
2024/04/13 09:21:46;;;;;;;6.05;3.38;;;20.20;99.90;;;-141.84;48.27;20356.50;5416237;26;20655;-61
2024/04/13 09:24:17;;;;;;;3.95;3.28;;;20.20;99.90;;;-141.84;48.43;20342.28;5425041;26;20229;-64
2024/04/13 09:26:44;;;;;;;5.43;2.97;;;20.10;99.90;;;-141.84;48.62;20338.22;5409926;26;20292;-59
2024/04/13 09:29:29;;;;;;;3.42;2.92;;;20.10;99.90;;;-141.84;48.88;20372.78;5396945;26;20799;-59
2024/04/13 09:32:00;;;;;;;5.75;3.90;;;20.20;99.90;;;-141.84;48.96;20326.03;5410481;26;20726;-60
2024/04/13 09:34:28;;;;;;;3.58;3.28;;;20.30;99.90;;;-141.84;48.91;20380.91;5430018;26;20297;-63
2024/04/13 09:37:10;;;;;;;5.07;3.83;;;20.40;99.90;;;-141.84;47.61;20421.56;5413153;26;20298;-59
2024/04/13 09:39:41;;;;;;;3.92;3.13;;;20.50;99.90;;;-141.84;47.19;20439.84;5430370;26;20316;-62
2024/04/13 09:42:12;;;;;;;4.28;3.55;;;20.60;99.90;;;-141.84;47.19;20433.75;5431251;26;20242;-63
2024/04/13 09:44:42;;;;;;;3.63;3.15;;;20.70;99.90;;;-141.84;47.08;20462.22;5420916;26;20307;-60
2024/04/13 09:47:13;;;;;;;4.78;3.40;;;20.70;99.90;;;-141.84;46.98;20470.34;5412417;26;20254;-59
2024/04/13 09:49:40;;;;;;;6.25;3.30;;;20.80;99.90;;;-141.84;46.37;20515.06;5418674;26;20250;-62
2024/04/13 09:52:10;;;;;;;3.72;3.20;;;20.90;99.90;;;-141.84;46.30;20504.91;5422568;26;20247;-61
2024/04/13 09:54:43;;;;;;;5.28;3.50;;;20.90;99.90;;;-141.84;46.14;20531.31;5427773;26;20335;-60
2024/04/13 09:57:18;;;;;;;3.88;3.00;;;21.00;99.90;;;-141.84;46.30;20543.53;5412505;26;20284;-60
2024/04/13 09:59:51;;;;;;;5.00;3.38;;;21.00;99.90;;;-141.84;46.04;20543.53;5414691;26;20342;-61
2024/04/13 10:02:21;;;;;;;6.75;3.28;;;21.10;99.90;;;-141.84;46.21;20559.78;5418012;26;20656;-60
2024/04/13 10:04:50;;;;;;;4.40;2.90;;;21.10;99.90;;;-141.84;46.01;20527.25;5410628;26;20851;-60
2024/04/13 10:07:22;;;;;;;3.55;3.25;;;21.20;99.90;;;-141.84;45.37;20608.56;5411359;26;20355;-60
2024/04/13 10:09:56;;;;;;;3.85;3.00;;;21.30;99.90;;;-141.84;45.45;20596.38;5411487;26;20726;-61
2024/04/13 10:12:33;;;;;;;3.22;2.88;;;21.40;99.90;;;-141.84;45.59;20602.47;5411690;26;20227;-60
2024/04/13 10:15:06;;;;;;;3.40;2.78;;;21.40;99.90;;;-141.84;44.88;20600.44;5405224;26;20281;-61